sensor_id;sensor_type;location;lat;lon;timestamp;pressure;altitude;pressure_sealevel;temperature;humidity
66430;BME280;53242;51.694;10.006;2023-05-24T00:01:15;100118.00;;;9.26;67.61
66430;BME280;53242;51.694;10.006;2023-05-24T00:03:37;100119.47;;;9.29;67.68
66430;BME280;53242;51.694;10.006;2023-05-24T00:06:00;100117.72;;;9.13;68.58
66430;BME280;53242;51.694;10.006;2023-05-24T00:08:22;100120.38;;;8.96;69.70
66430;BME280;53242;51.694;10.006;2023-05-24T00:10:45;100119.19;;;9.15;68.97
66430;BME280;53242;51.694;10.006;2023-05-24T00:13:07;100121.13;;;9.21;68.62
66430;BME280;53242;51.694;10.006;2023-05-24T00:15:30;100124.97;;;9.02;69.11
66430;BME280;53242;51.694;10.006;2023-05-24T00:17:52;100122.69;;;8.99;69.42
66430;BME280;53242;51.694;10.006;2023-05-24T00:20:14;100119.41;;;9.05;69.59
66430;BME280;53242;51.694;10.006;2023-05-24T00:22:37;100119.22;;;8.99;69.35
66430;BME280;53242;51.694;10.006;2023-05-24T00:25:00;100120.34;;;9.21;69.17
66430;BME280;53242;51.694;10.006;2023-05-24T00:27:22;100122.34;;;9.11;69.63
66430;BME280;53242;51.694;10.006;2023-05-24T00:29:45;100116.50;;;9.32;69.15
66430;BME280;53242;51.694;10.006;2023-05-24T00:32:07;100111.47;;;9.14;69.23
66430;BME280;53242;51.694;10.006;2023-05-24T00:34:29;100113.81;;;9.00;69.89
66430;BME280;53242;51.694;10.006;2023-05-24T00:36:52;100111.09;;;9.17;69.21
66430;BME280;53242;51.694;10.006;2023-05-24T00:39:14;100111.41;;;9.22;69.38
66430;BME280;53242;51.694;10.006;2023-05-24T00:41:38;100114.41;;;9.19;69.47
66430;BME280;53242;51.694;10.006;2023-05-24T00:44:00;100105.59;;;8.95;70.47
66430;BME280;53242;51.694;10.006;2023-05-24T00:46:29;100112.50;;;8.88;70.84
66430;BME280;53242;51.694;10.006;2023-05-24T00:48:52;100111.00;;;9.02;70.32
66430;BME280;53242;51.694;10.006;2023-05-24T00:51:15;100107.47;;;8.62;71.53
66430;BME280;53242;51.694;10.006;2023-05-24T00:53:39;100101.84;;;8.81;70.87
66430;BME280;53242;51.694;10.006;2023-05-24T00:56:03;100099.56;;;8.70;71.23
66430;BME280;53242;51.694;10.006;2023-05-24T00:58:25;100098.50;;;8.96;70.35
66430;BME280;53242;51.694;10.006;2023-05-24T01:00:52;100105.44;;;8.88;70.18
66430;BME280;53242;51.694;10.006;2023-05-24T01:03:18;100094.91;;;8.88;70.44
66430;BME280;53242;51.694;10.006;2023-05-24T01:05:41;100102.66;;;8.82;70.83
66430;BME280;53242;51.694;10.006;2023-05-24T01:11:16;100098.75;;;8.69;71.05
66430;BME280;53242;51.694;10.006;2023-05-24T01:14:01;100099.91;;;8.67;71.88
66430;BME280;53242;51.694;10.006;2023-05-24T01:16:31;100103.84;;;8.71;70.74
66430;BME280;53242;51.694;10.006;2023-05-24T01:19:21;100107.44;;;8.70;71.38
66430;BME280;53242;51.694;10.006;2023-05-24T01:21:53;100104.50;;;8.48;71.99
66430;BME280;53242;51.694;10.006;2023-05-24T01:24:24;100102.19;;;8.53;71.30
66430;BME280;53242;51.694;10.006;2023-05-24T01:27:12;100099.22;;;8.15;72.25
66430;BME280;53242;51.694;10.006;2023-05-24T01:29:36;100098.06;;;8.34;71.91
66430;BME280;53242;51.694;10.006;2023-05-24T01:31:58;100105.94;;;8.34;71.78
66430;BME280;53242;51.694;10.006;2023-05-24T01:34:21;100097.06;;;8.19;72.59
66430;BME280;53242;51.694;10.006;2023-05-24T01:36:43;100097.59;;;8.47;71.38
66430;BME280;53242;51.694;10.006;2023-05-24T01:39:07;100097.41;;;8.40;71.49
66430;BME280;53242;51.694;10.006;2023-05-24T01:41:39;100087.41;;;8.52;71.73
66430;BME280;53242;51.694;10.006;2023-05-24T01:44:17;100095.63;;;8.58;71.49
66430;BME280;53242;51.694;10.006;2023-05-24T01:46:46;100090.66;;;8.21;72.33
66430;BME280;53242;51.694;10.006;2023-05-24T01:49:21;100086.09;;;8.48;71.69
66430;BME280;53242;51.694;10.006;2023-05-24T01:51:58;100086.72;;;8.34;72.91
66430;BME280;53242;51.694;10.006;2023-05-24T01:54:22;100087.25;;;8.46;71.92
66430;BME280;53242;51.694;10.006;2023-05-24T01:56:47;100087.06;;;8.64;71.53
66430;BME280;53242;51.694;10.006;2023-05-24T01:59:11;100081.31;;;8.60;71.55
66430;BME280;53242;51.694;10.006;2023-05-24T02:01:34;100078.03;;;8.58;71.58
66430;BME280;53242;51.694;10.006;2023-05-24T02:03:58;100082.13;;;8.61;71.72
66430;BME280;53242;51.694;10.006;2023-05-24T02:06:20;100072.91;;;8.65;71.32
66430;BME280;53242;51.694;10.006;2023-05-24T02:08:42;100073.13;;;8.47;71.68
66430;BME280;53242;51.694;10.006;2023-05-24T02:11:05;100072.09;;;8.31;72.58
66430;BME280;53242;51.694;10.006;2023-05-24T02:13:27;100068.84;;;8.13;73.03
66430;BME280;53242;51.694;10.006;2023-05-24T02:15:50;100072.25;;;8.21;72.96
66430;BME280;53242;51.694;10.006;2023-05-24T02:18:14;100069.97;;;8.35;72.61
66430;BME280;53242;51.694;10.006;2023-05-24T02:20:39;100069.31;;;8.49;71.97
66430;BME280;53242;51.694;10.006;2023-05-24T02:23:03;100076.72;;;8.54;71.41
66430;BME280;53242;51.694;10.006;2023-05-24T02:25:26;100061.59;;;8.64;71.16
66430;BME280;53242;51.694;10.006;2023-05-24T02:27:48;100068.31;;;8.59;71.62
66430;BME280;53242;51.694;10.006;2023-05-24T02:30:11;100061.25;;;8.59;71.29
66430;BME280;53242;51.694;10.006;2023-05-24T02:32:33;100062.56;;;8.63;71.21
66430;BME280;53242;51.694;10.006;2023-05-24T02:34:57;100064.88;;;8.50;71.43
66430;BME280;53242;51.694;10.006;2023-05-24T02:37:23;100063.22;;;8.57;71.59
66430;BME280;53242;51.694;10.006;2023-05-24T02:39:45;100061.72;;;8.63;71.50
66430;BME280;53242;51.694;10.006;2023-05-24T02:42:08;100059.78;;;8.57;71.77
66430;BME280;53242;51.694;10.006;2023-05-24T02:44:32;100065.06;;;8.57;71.56
66430;BME280;53242;51.694;10.006;2023-05-24T02:46:54;100056.50;;;8.54;71.68
66430;BME280;53242;51.694;10.006;2023-05-24T02:49:17;100060.09;;;8.53;71.72
66430;BME280;53242;51.694;10.006;2023-05-24T02:51:39;100057.31;;;8.63;71.59
66430;BME280;53242;51.694;10.006;2023-05-24T02:54:02;100053.06;;;8.54;72.14
66430;BME280;53242;51.694;10.006;2023-05-24T02:56:25;100053.69;;;8.56;71.72
66430;BME280;53242;51.694;10.006;2023-05-24T02:58:47;100058.63;;;8.59;71.89
66430;BME280;53242;51.694;10.006;2023-05-24T03:01:10;100054.84;;;8.53;71.87
66430;BME280;53242;51.694;10.006;2023-05-24T03:03:36;100059.78;;;8.57;72.25
66430;BME280;53242;51.694;10.006;2023-05-24T03:06:00;100060.41;;;8.75;71.54
66430;BME280;53242;51.694;10.006;2023-05-24T03:08:23;100053.84;;;8.63;71.62
66430;BME280;53242;51.694;10.006;2023-05-24T03:10:45;100062.56;;;8.55;71.96
66430;BME280;53242;51.694;10.006;2023-05-24T03:13:09;100065.38;;;8.62;72.18
66430;BME280;53242;51.694;10.006;2023-05-24T03:15:33;100066.31;;;8.69;71.91
66430;BME280;53242;51.694;10.006;2023-05-24T03:17:55;100054.69;;;8.63;71.81
66430;BME280;53242;51.694;10.006;2023-05-24T03:20:18;100062.06;;;8.60;72.19
66430;BME280;53242;51.694;10.006;2023-05-24T03:22:42;100053.16;;;8.69;71.90
66430;BME280;53242;51.694;10.006;2023-05-24T03:25:05;100053.03;;;8.46;72.38
66430;BME280;53242;51.694;10.006;2023-05-24T03:27:29;100062.41;;;8.65;71.88
66430;BME280;53242;51.694;10.006;2023-05-24T03:29:52;100064.06;;;8.49;72.55
66430;BME280;53242;51.694;10.006;2023-05-24T03:32:18;100059.59;;;8.66;72.03
66430;BME280;53242;51.694;10.006;2023-05-24T03:34:40;100059.94;;;8.55;72.15
66430;BME280;53242;51.694;10.006;2023-05-24T03:37:04;100064.03;;;8.58;72.26
66430;BME280;53242;51.694;10.006;2023-05-24T03:39:26;100061.25;;;8.59;72.27
66430;BME280;53242;51.694;10.006;2023-05-24T03:41:53;100066.50;;;8.67;72.36
66430;BME280;53242;51.694;10.006;2023-05-24T03:44:15;100071.75;;;8.67;72.16
66430;BME280;53242;51.694;10.006;2023-05-24T03:46:38;100071.94;;;8.66;72.04
66430;BME280;53242;51.694;10.006;2023-05-24T03:49:00;100073.78;;;8.49;72.61
66430;BME280;53242;51.694;10.006;2023-05-24T03:51:23;100073.38;;;8.77;72.06
66430;BME280;53242;51.694;10.006;2023-05-24T03:53:50;100078.84;;;8.67;72.22
66430;BME280;53242;51.694;10.006;2023-05-24T03:56:12;100083.25;;;8.83;72.00
66430;BME280;53242;51.694;10.006;2023-05-24T03:58:35;100085.59;;;8.69;72.42
66430;BME280;53242;51.694;10.006;2023-05-24T04:00:58;100088.34;;;8.84;71.51
66430;BME280;53242;51.694;10.006;2023-05-24T04:03:21;100087.56;;;8.59;72.80
66430;BME280;53242;51.694;10.006;2023-05-24T04:05:43;100080.66;;;8.58;72.80
66430;BME280;53242;51.694;10.006;2023-05-24T04:08:06;100086.06;;;8.73;72.15
66430;BME280;53242;51.694;10.006;2023-05-24T04:10:28;100085.38;;;8.79;72.07
66430;BME280;53242;51.694;10.006;2023-05-24T04:12:51;100091.78;;;8.93;71.59
66430;BME280;53242;51.694;10.006;2023-05-24T04:15:13;100094.75;;;8.90;72.11
66430;BME280;53242;51.694;10.006;2023-05-24T04:17:36;100093.47;;;8.61;72.82
66430;BME280;53242;51.694;10.006;2023-05-24T04:19:59;100090.66;;;8.79;72.79
66430;BME280;53242;51.694;10.006;2023-05-24T04:22:22;100099.03;;;8.83;72.44
66430;BME280;53242;51.694;10.006;2023-05-24T04:24:45;100092.31;;;8.64;72.73
66430;BME280;53242;51.694;10.006;2023-05-24T04:27:08;100090.22;;;8.59;73.01
66430;BME280;53242;51.694;10.006;2023-05-24T04:29:31;100092.44;;;8.95;71.89
66430;BME280;53242;51.694;10.006;2023-05-24T04:31:55;100096.44;;;8.66;73.50
66430;BME280;53242;51.694;10.006;2023-05-24T04:34:20;100096.53;;;8.89;72.54
66430;BME280;53242;51.694;10.006;2023-05-24T04:37:16;100083.69;;;9.03;71.98
66430;BME280;53242;51.694;10.006;2023-05-24T04:39:40;100084.38;;;8.88;72.66
66430;BME280;53242;51.694;10.006;2023-05-24T04:42:03;100088.13;;;9.02;72.01
66430;BME280;53242;51.694;10.006;2023-05-24T04:44:25;100087.22;;;8.70;73.07
66430;BME280;53242;51.694;10.006;2023-05-24T04:46:49;100095.75;;;8.89;73.21
66430;BME280;53242;51.694;10.006;2023-05-24T04:49:11;100103.97;;;8.78;73.61
66430;BME280;53242;51.694;10.006;2023-05-24T04:51:34;100093.63;;;8.76;73.83
66430;BME280;53242;51.694;10.006;2023-05-24T04:53:59;100096.22;;;8.84;73.64
66430;BME280;53242;51.694;10.006;2023-05-24T04:56:22;100096.91;;;8.78;73.42
66430;BME280;53242;51.694;10.006;2023-05-24T04:58:46;100100.53;;;8.77;73.58
66430;BME280;53242;51.694;10.006;2023-05-24T05:01:09;100098.22;;;8.82;73.12
66430;BME280;53242;51.694;10.006;2023-05-24T05:03:31;100097.34;;;8.98;72.53
66430;BME280;53242;51.694;10.006;2023-05-24T05:05:53;100098.78;;;9.09;72.56
66430;BME280;53242;51.694;10.006;2023-05-24T05:08:16;100100.66;;;9.00;72.91
66430;BME280;53242;51.694;10.006;2023-05-24T05:10:38;100106.13;;;8.74;73.63
66430;BME280;53242;51.694;10.006;2023-05-24T05:13:01;100092.03;;;9.07;72.93
66430;BME280;53242;51.694;10.006;2023-05-24T05:15:23;100096.53;;;8.98;73.25
66430;BME280;53242;51.694;10.006;2023-05-24T05:17:46;100101.50;;;8.84;73.58
66430;BME280;53242;51.694;10.006;2023-05-24T05:20:08;100102.75;;;9.13;72.87
66430;BME280;53242;51.694;10.006;2023-05-24T05:22:31;100107.00;;;9.23;72.63
66430;BME280;53242;51.694;10.006;2023-05-24T05:24:53;100109.56;;;9.31;72.78
66430;BME280;53242;51.694;10.006;2023-05-24T05:27:16;100119.22;;;9.07;73.74
66430;BME280;53242;51.694;10.006;2023-05-24T05:29:38;100120.56;;;9.43;73.29
66430;BME280;53242;51.694;10.006;2023-05-24T05:32:00;100120.94;;;9.31;73.39
66430;BME280;53242;51.694;10.006;2023-05-24T05:34:23;100117.84;;;9.28;73.61
66430;BME280;53242;51.694;10.006;2023-05-24T05:36:45;100124.91;;;9.27;74.28
66430;BME280;53242;51.694;10.006;2023-05-24T05:39:08;100119.44;;;9.37;74.05
66430;BME280;53242;51.694;10.006;2023-05-24T05:41:33;100122.44;;;9.34;74.10
66430;BME280;53242;51.694;10.006;2023-05-24T05:43:55;100116.22;;;9.18;74.12
66430;BME280;53242;51.694;10.006;2023-05-24T05:46:18;100119.56;;;9.44;74.31
66430;BME280;53242;51.694;10.006;2023-05-24T05:48:41;100116.47;;;9.71;73.48
66430;BME280;53242;51.694;10.006;2023-05-24T05:51:04;100119.50;;;9.60;73.74
66430;BME280;53242;51.694;10.006;2023-05-24T05:53:26;100121.28;;;9.28;74.62
66430;BME280;53242;51.694;10.006;2023-05-24T05:55:49;100112.41;;;9.61;74.31
66430;BME280;53242;51.694;10.006;2023-05-24T05:58:11;100119.06;;;9.80;73.49
66430;BME280;53242;51.694;10.006;2023-05-24T06:00:34;100127.19;;;9.70;73.49
66430;BME280;53242;51.694;10.006;2023-05-24T06:02:56;100135.47;;;9.90;73.09
66430;BME280;53242;51.694;10.006;2023-05-24T06:05:19;100127.72;;;9.65;73.74
66430;BME280;53242;51.694;10.006;2023-05-24T06:07:41;100123.09;;;9.67;73.72
66430;BME280;53242;51.694;10.006;2023-05-24T06:10:04;100124.13;;;9.90;73.33
66430;BME280;53242;51.694;10.006;2023-05-24T06:12:27;100123.13;;;9.91;73.47
66430;BME280;53242;51.694;10.006;2023-05-24T06:14:49;100126.75;;;9.90;73.63
66430;BME280;53242;51.694;10.006;2023-05-24T06:17:13;100120.72;;;10.04;72.76
66430;BME280;53242;51.694;10.006;2023-05-24T06:19:36;100116.69;;;10.16;72.52
66430;BME280;53242;51.694;10.006;2023-05-24T06:21:58;100124.00;;;10.06;72.54
66430;BME280;53242;51.694;10.006;2023-05-24T06:24:21;100129.09;;;10.31;72.12
66430;BME280;53242;51.694;10.006;2023-05-24T06:26:43;100129.06;;;10.77;70.69
66430;BME280;53242;51.694;10.006;2023-05-24T06:29:06;100131.81;;;10.84;70.54
66430;BME280;53242;51.694;10.006;2023-05-24T06:31:29;100126.19;;;10.87;70.32
66430;BME280;53242;51.694;10.006;2023-05-24T06:33:51;100130.72;;;10.78;71.04
66430;BME280;53242;51.694;10.006;2023-05-24T06:36:14;100138.72;;;10.85;70.28
66430;BME280;53242;51.694;10.006;2023-05-24T06:38:36;100135.00;;;10.79;70.47
66430;BME280;53242;51.694;10.006;2023-05-24T06:41:00;100139.16;;;10.74;70.64
66430;BME280;53242;51.694;10.006;2023-05-24T06:43:22;100144.41;;;10.35;72.47
66430;BME280;53242;51.694;10.006;2023-05-24T06:45:45;100151.41;;;9.97;73.61
66430;BME280;53242;51.694;10.006;2023-05-24T06:48:10;100152.75;;;9.93;73.60
66430;BME280;53242;51.694;10.006;2023-05-24T06:50:32;100151.94;;;9.92;73.12
66430;BME280;53242;51.694;10.006;2023-05-24T06:52:54;100150.31;;;10.14;72.63
66430;BME280;53242;51.694;10.006;2023-05-24T06:55:18;100151.00;;;9.85;72.65
66430;BME280;53242;51.694;10.006;2023-05-24T06:57:40;100145.56;;;10.10;72.02
66430;BME280;53242;51.694;10.006;2023-05-24T07:00:03;100140.19;;;10.26;71.34
66430;BME280;53242;51.694;10.006;2023-05-24T07:02:31;100144.56;;;10.42;71.32
66430;BME280;53242;51.694;10.006;2023-05-24T07:04:53;100144.34;;;10.67;69.96
66430;BME280;53242;51.694;10.006;2023-05-24T07:07:16;100148.81;;;10.43;71.31
66430;BME280;53242;51.694;10.006;2023-05-24T07:09:41;100150.63;;;10.43;71.40
66430;BME280;53242;51.694;10.006;2023-05-24T07:12:04;100146.59;;;10.70;69.80
66430;BME280;53242;51.694;10.006;2023-05-24T07:14:26;100142.97;;;10.71;69.57
66430;BME280;53242;51.694;10.006;2023-05-24T07:16:49;100138.66;;;11.08;68.67
66430;BME280;53242;51.694;10.006;2023-05-24T07:19:11;100146.03;;;11.13;68.68
66430;BME280;53242;51.694;10.006;2023-05-24T07:21:34;100140.38;;;11.01;68.20
66430;BME280;53242;51.694;10.006;2023-05-24T07:23:57;100146.31;;;11.03;68.35
66430;BME280;53242;51.694;10.006;2023-05-24T07:26:19;100151.94;;;11.45;66.99
66430;BME280;53242;51.694;10.006;2023-05-24T07:28:42;100146.56;;;11.38;67.11
66430;BME280;53242;51.694;10.006;2023-05-24T07:31:05;100146.75;;;11.51;66.81
66430;BME280;53242;51.694;10.006;2023-05-24T07:33:29;100147.28;;;11.47;67.24
66430;BME280;53242;51.694;10.006;2023-05-24T07:35:51;100155.09;;;11.70;66.43
66430;BME280;53242;51.694;10.006;2023-05-24T07:38:14;100149.41;;;11.37;66.87
66430;BME280;53242;51.694;10.006;2023-05-24T07:40:37;100155.78;;;11.12;67.42
66430;BME280;53242;51.694;10.006;2023-05-24T07:42:59;100158.78;;;11.54;65.85
66430;BME280;53242;51.694;10.006;2023-05-24T07:45:22;100159.72;;;11.98;64.47
66430;BME280;53242;51.694;10.006;2023-05-24T07:47:44;100156.56;;;11.58;64.43
66430;BME280;53242;51.694;10.006;2023-05-24T07:50:07;100161.34;;;11.99;63.19
66430;BME280;53242;51.694;10.006;2023-05-24T07:52:29;100149.84;;;11.92;62.33
66430;BME280;53242;51.694;10.006;2023-05-24T07:54:52;100155.06;;;12.65;61.18
66430;BME280;53242;51.694;10.006;2023-05-24T07:57:14;100152.88;;;12.75;60.92
66430;BME280;53242;51.694;10.006;2023-05-24T07:59:37;100160.00;;;12.75;61.00
66430;BME280;53242;51.694;10.006;2023-05-24T08:01:59;100152.47;;;13.07;59.75
66430;BME280;53242;51.694;10.006;2023-05-24T08:04:26;100148.72;;;13.23;59.00
66430;BME280;53242;51.694;10.006;2023-05-24T08:06:49;100145.44;;;13.62;58.97
66430;BME280;53242;51.694;10.006;2023-05-24T08:09:11;100154.78;;;13.16;60.16
66430;BME280;53242;51.694;10.006;2023-05-24T08:11:34;100150.06;;;13.12;59.81
66430;BME280;53242;51.694;10.006;2023-05-24T08:13:56;100140.00;;;13.36;58.52
66430;BME280;53242;51.694;10.006;2023-05-24T08:16:18;100139.50;;;13.54;58.68
66430;BME280;53242;51.694;10.006;2023-05-24T08:18:41;100135.78;;;13.06;59.56
66430;BME280;53242;51.694;10.006;2023-05-24T08:21:03;100141.13;;;12.85;59.72
66430;BME280;53242;51.694;10.006;2023-05-24T08:23:26;100147.19;;;12.28;60.78
66430;BME280;53242;51.694;10.006;2023-05-24T08:25:51;100147.88;;;12.87;59.71
66430;BME280;53242;51.694;10.006;2023-05-24T08:28:14;100149.88;;;12.35;61.28
66430;BME280;53242;51.694;10.006;2023-05-24T08:30:37;100147.13;;;12.43;60.71
66430;BME280;53242;51.694;10.006;2023-05-24T08:33:00;100143.38;;;12.59;60.89
66430;BME280;53242;51.694;10.006;2023-05-24T08:35:22;100150.66;;;12.29;60.68
66430;BME280;53242;51.694;10.006;2023-05-24T08:37:45;100158.88;;;12.34;61.17
66430;BME280;53242;51.694;10.006;2023-05-24T08:40:09;100156.94;;;11.91;62.60
66430;BME280;53242;51.694;10.006;2023-05-24T08:42:31;100150.88;;;13.12;59.40
66430;BME280;53242;51.694;10.006;2023-05-24T08:45:07;100145.41;;;13.14;58.31
66430;BME280;53242;51.694;10.006;2023-05-24T08:47:31;100146.41;;;13.48;57.91
66430;BME280;53242;51.694;10.006;2023-05-24T08:49:54;100149.94;;;13.69;55.97
66430;BME280;53242;51.694;10.006;2023-05-24T08:52:16;100145.09;;;13.86;55.50
66430;BME280;53242;51.694;10.006;2023-05-24T08:54:39;100148.25;;;14.23;55.02
66430;BME280;53242;51.694;10.006;2023-05-24T08:57:02;100151.03;;;13.88;54.93
66430;BME280;53242;51.694;10.006;2023-05-24T08:59:25;100146.91;;;13.72;56.01
66430;BME280;53242;51.694;10.006;2023-05-24T09:01:52;100147.91;;;13.29;57.33
66430;BME280;53242;51.694;10.006;2023-05-24T09:04:15;100144.63;;;12.92;57.69
66430;BME280;53242;51.694;10.006;2023-05-24T09:06:37;100137.63;;;13.12;57.84
66430;BME280;53242;51.694;10.006;2023-05-24T09:09:01;100149.25;;;13.46;57.21
66430;BME280;53242;51.694;10.006;2023-05-24T09:11:24;100144.94;;;13.94;56.08
66430;BME280;53242;51.694;10.006;2023-05-24T09:13:48;100140.31;;;14.50;54.14
66430;BME280;53242;51.694;10.006;2023-05-24T09:16:10;100143.19;;;14.75;53.35
66430;BME280;53242;51.694;10.006;2023-05-24T09:18:33;100146.44;;;14.43;53.91
66430;BME280;53242;51.694;10.006;2023-05-24T09:20:55;100142.34;;;14.34;54.24
66430;BME280;53242;51.694;10.006;2023-05-24T09:23:18;100141.66;;;13.98;54.35
66430;BME280;53242;51.694;10.006;2023-05-24T09:25:44;100152.69;;;13.89;55.71
66430;BME280;53242;51.694;10.006;2023-05-24T09:28:07;100143.50;;;13.91;55.76
66430;BME280;53242;51.694;10.006;2023-05-24T09:30:29;100146.31;;;13.76;56.35
66430;BME280;53242;51.694;10.006;2023-05-24T09:32:58;100153.25;;;13.77;55.70
66430;BME280;53242;51.694;10.006;2023-05-24T09:35:21;100157.34;;;13.80;55.33
66430;BME280;53242;51.694;10.006;2023-05-24T09:37:44;100148.19;;;13.89;55.07
66430;BME280;53242;51.694;10.006;2023-05-24T09:40:17;100160.78;;;13.74;54.64
66430;BME280;53242;51.694;10.006;2023-05-24T09:42:41;100161.16;;;13.64;55.17
66430;BME280;53242;51.694;10.006;2023-05-24T09:45:06;100157.78;;;13.42;55.95
66430;BME280;53242;51.694;10.006;2023-05-24T09:47:34;100156.72;;;13.78;55.14
66430;BME280;53242;51.694;10.006;2023-05-24T09:49:57;100159.78;;;13.75;56.12
66430;BME280;53242;51.694;10.006;2023-05-24T09:52:23;100162.25;;;13.83;55.50
66430;BME280;53242;51.694;10.006;2023-05-24T09:54:45;100161.44;;;13.82;55.08
66430;BME280;53242;51.694;10.006;2023-05-24T09:57:09;100158.06;;;14.16;54.57
66430;BME280;53242;51.694;10.006;2023-05-24T09:59:32;100154.72;;;13.93;54.41
66430;BME280;53242;51.694;10.006;2023-05-24T10:02:10;100165.06;;;13.75;53.72
66430;BME280;53242;51.694;10.006;2023-05-24T10:04:33;100163.50;;;13.94;54.15
66430;BME280;53242;51.694;10.006;2023-05-24T10:06:55;100161.50;;;14.09;54.08
66430;BME280;53242;51.694;10.006;2023-05-24T10:09:18;100161.50;;;14.09;54.07
66430;BME280;53242;51.694;10.006;2023-05-24T10:11:41;100164.53;;;13.93;53.70
66430;BME280;53242;51.694;10.006;2023-05-24T10:14:04;100164.88;;;13.83;53.63
66430;BME280;53242;51.694;10.006;2023-05-24T10:16:28;100160.44;;;13.90;53.24
66430;BME280;53242;51.694;10.006;2023-05-24T10:18:50;100166.06;;;13.67;52.06
66430;BME280;53242;51.694;10.006;2023-05-24T10:21:13;100162.34;;;14.23;51.86
66430;BME280;53242;51.694;10.006;2023-05-24T10:23:37;100175.91;;;13.73;53.31
66430;BME280;53242;51.694;10.006;2023-05-24T10:26:08;100168.50;;;14.51;52.32
66430;BME280;53242;51.694;10.006;2023-05-24T10:28:33;100178.28;;;14.23;52.87
66430;BME280;53242;51.694;10.006;2023-05-24T10:33:30;100173.47;;;13.78;54.30
66430;BME280;53242;51.694;10.006;2023-05-24T10:35:53;100180.81;;;13.83;54.79
66430;BME280;53242;51.694;10.006;2023-05-24T10:38:19;100179.16;;;13.75;54.94
66430;BME280;53242;51.694;10.006;2023-05-24T10:40:43;100176.22;;;14.05;54.39
66430;BME280;53242;51.694;10.006;2023-05-24T10:43:06;100174.13;;;14.01;54.78
66430;BME280;53242;51.694;10.006;2023-05-24T10:45:30;100175.13;;;13.86;55.19
66430;BME280;53242;51.694;10.006;2023-05-24T10:47:54;100176.53;;;13.82;54.90
66430;BME280;53242;51.694;10.006;2023-05-24T10:50:18;100168.75;;;13.80;54.47
66430;BME280;53242;51.694;10.006;2023-05-24T10:52:41;100162.66;;;13.87;54.98
66430;BME280;53242;51.694;10.006;2023-05-24T10:55:06;100167.19;;;13.93;55.16
66430;BME280;53242;51.694;10.006;2023-05-24T10:57:29;100169.69;;;14.08;55.79
66430;BME280;53242;51.694;10.006;2023-05-24T10:59:55;100171.91;;;14.04;55.38
66430;BME280;53242;51.694;10.006;2023-05-24T11:02:18;100173.50;;;13.92;55.18
66430;BME280;53242;51.694;10.006;2023-05-24T11:04:44;100174.56;;;14.04;56.13
66430;BME280;53242;51.694;10.006;2023-05-24T11:07:08;100172.13;;;14.03;56.24
66430;BME280;53242;51.694;10.006;2023-05-24T11:09:31;100186.63;;;14.07;56.54
66430;BME280;53242;51.694;10.006;2023-05-24T11:12:02;100186.06;;;13.63;58.05
66430;BME280;53242;51.694;10.006;2023-05-24T11:14:36;100187.78;;;13.91;57.79
66430;BME280;53242;51.694;10.006;2023-05-24T11:17:00;100184.78;;;14.14;57.43
66430;BME280;53242;51.694;10.006;2023-05-24T11:19:37;100182.75;;;14.09;57.51
66430;BME280;53242;51.694;10.006;2023-05-24T11:22:01;100182.59;;;14.44;56.63
66430;BME280;53242;51.694;10.006;2023-05-24T11:24:26;100182.38;;;14.53;56.72
66430;BME280;53242;51.694;10.006;2023-05-24T11:26:48;100182.97;;;14.35;56.56
66430;BME280;53242;51.694;10.006;2023-05-24T11:29:14;100189.75;;;14.51;56.74
66430;BME280;53242;51.694;10.006;2023-05-24T11:31:46;100193.00;;;14.26;56.62
66430;BME280;53242;51.694;10.006;2023-05-24T11:34:09;100186.63;;;14.27;56.64
66430;BME280;53242;51.694;10.006;2023-05-24T11:36:32;100196.66;;;14.38;56.58
66430;BME280;53242;51.694;10.006;2023-05-24T11:38:54;100198.09;;;14.21;56.12
66430;BME280;53242;51.694;10.006;2023-05-24T11:41:17;100202.78;;;14.32;56.58
66430;BME280;53242;51.694;10.006;2023-05-24T11:43:39;100204.63;;;14.38;56.63
66430;BME280;53242;51.694;10.006;2023-05-24T11:46:03;100194.66;;;14.47;56.25
66430;BME280;53242;51.694;10.006;2023-05-24T11:48:25;100208.13;;;14.45;55.35
66430;BME280;53242;51.694;10.006;2023-05-24T11:50:48;100193.00;;;14.26;55.25
66430;BME280;53242;51.694;10.006;2023-05-24T11:53:12;100196.88;;;14.37;55.31
66430;BME280;53242;51.694;10.006;2023-05-24T11:55:34;100189.97;;;14.62;55.07
66430;BME280;53242;51.694;10.006;2023-05-24T11:57:58;100192.22;;;14.66;55.18
66430;BME280;53242;51.694;10.006;2023-05-24T12:00:25;100192.84;;;14.74;54.87
66430;BME280;53242;51.694;10.006;2023-05-24T12:02:48;100187.94;;;14.85;55.26
66430;BME280;53242;51.694;10.006;2023-05-24T12:05:11;100177.91;;;14.60;54.61
66430;BME280;53242;51.694;10.006;2023-05-24T12:07:35;100175.81;;;15.29;54.23
66430;BME280;53242;51.694;10.006;2023-05-24T12:09:58;100173.66;;;15.58;55.57
66430;BME280;53242;51.694;10.006;2023-05-24T12:12:21;100177.09;;;14.86;57.28
66430;BME280;53242;51.694;10.006;2023-05-24T12:14:44;100168.94;;;14.94;56.48
66430;BME280;53242;51.694;10.006;2023-05-24T12:17:13;100173.44;;;14.74;55.97
66430;BME280;53242;51.694;10.006;2023-05-24T12:19:37;100183.63;;;15.10;55.63
66430;BME280;53242;51.694;10.006;2023-05-24T12:22:03;100178.47;;;15.22;55.17
66430;BME280;53242;51.694;10.006;2023-05-24T12:24:26;100180.13;;;14.63;56.53
66430;BME280;53242;51.694;10.006;2023-05-24T12:26:49;100181.59;;;14.92;56.59
66430;BME280;53242;51.694;10.006;2023-05-24T12:29:12;100177.72;;;14.88;56.80
66430;BME280;53242;51.694;10.006;2023-05-24T12:31:35;100176.25;;;14.52;56.79
66430;BME280;53242;51.694;10.006;2023-05-24T12:33:58;100178.31;;;15.04;55.72